Monday, September 24, 2018, 9:45 PM GMT
Back to Local

CWPS, Long Point Meteorological Aeronautical Presentation System

Location: , , Canada Lat: 42.567
Local Time: 9:45 PM GMT (21:45 GMT) Lon: -80.05
Time Zone: GMT Elev: 574 ft

Show me the last for .
Show Coded

Time T Td Feel RH Dir Speed Gust Alt SLP Vis Weather Sky Remarks
2018-09-24 20:00 69 58 - 68 90° 20 - - 30.20 0 Peak wind: 24 mph (21 kts) from 100° at 03 min
2018-09-24 19:00 69 59 - 70 90° 20 - - 30.21 0 Peak wind: 24 mph (21 kts) from 80° at 38 min
2018-09-24 16:00 62 57 - 84 30° 22 - - 30.27 0 Peak wind: 25 mph (22 kts) from 40° at 58 min
2018-09-24 15:00 61 56 - 82 40° 18 - - 30.28 0 Peak wind: 21 mph (19 kts) from 60° at 07 min
2018-09-24 14:00 60 55 - 81 50° 17 23 - 30.29 0 Peak wind: 26 mph (23 kts) from 60° at 15 min
2018-09-24 13:00 60 54 - 80 50° 22 28 - 30.29 0 Peak wind: 28 mph (25 kts) from 50° at 00 min
2018-09-24 12:00 61 53 - 75 50° 24 30 - 30.27 0 Peak wind: 31 mph (27 kts) from 30° at 47 min
2018-09-24 11:00 61 55 - 80 30° 26 - - 30.25 0 Peak wind: 29 mph (26 kts) from 30° at 51 min
2018-09-24 10:00 62 57 - 82 30° 21 - - 30.25 0 Peak wind: 24 mph (21 kts) from 40° at 51 min
2018-09-24 09:00 63 56 - 76 50° 15 - - 30.24 0 Peak wind: 20 mph (18 kts) from 60° at 46 min
2018-09-24 08:00 63 56 - 77 60° 15 - - 30.24 0 Peak wind: 20 mph (18 kts) from 60° at 20 min
2018-09-24 07:00 63 55 - 74 60° 17 - - 30.24 0 Peak wind: 20 mph (18 kts) from 60° at 58 min
2018-09-24 06:00 64 54 - 70 70° 17 - - 30.24 0 Peak wind: 25 mph (22 kts) from 60° at 20 min
2018-09-24 05:00 65 56 - 75 40° 23 - - 30.24 0 Peak wind: 29 mph (26 kts) from 30° at 26 min
2018-09-24 04:00 64 55 - 74 20° 24 - - 30.24 0 Peak wind: 27 mph (24 kts) from 10° at 10 min
2018-09-24 03:00 64 55 - 73 10° 23 - - 30.24 0 Peak wind: 27 mph (24 kts) from 10° at 43 min
2018-09-24 02:00 63 53 - 69 10° 22 - - 30.22 0 Peak wind: 26 mph (23 kts) from 10° at 26 min
2018-09-24 01:00 63 53 - 68 10° 24 - - 30.21 0 Peak wind: 25 mph (22 kts) from 10° at 59 min
2018-09-24 00:00 65 51 - 61 360° 21 - - 30.20 0 Peak wind: 23 mph (20 kts) from 0° at 53 min
2018-09-23 23:00 66 50 - 56 10° 15 - - 30.19 0 None
2018-09-23 22:00 66 43 - 43 10° 16 - - 30.17 0 None

Support USWX by starting your Amazon purchase here.